Johanna Schepers — CQCE — position and weather

sailwx.info

Track history (hours):
 
Tides and Currents Weather Stations Pressure Air Temp Water Temp Dewpoint Dewpoint Depression Visibility Wind Speed Wind Dir Waves Ship Positions

Johanna Schepers

Last reported at 2017-Sep-26 05:55 UTC. Time now 2017-Sep-26 18:39 UTC.
Position N 29°09' W 015°15'.

Length 141 m; draft 6.1 m.

Type: Cargo ship. MMSI: 255805755.

Date/timePositionNaut miles runAvg speedWind from/ knotsBaromVisibWave heightAir tempDewpointWater temp
2017-Sep-26 05:55N 29°09' W 015°15'716.1
2017-Sep-26 05:28N 29°05' W 015°22'716.3
2017-Sep-26 05:00N 28°60' W 015°28'816.5
2017-Sep-26 04:30N 28°55' W 015°36'816.6
2017-Sep-26 04:00N 28°50' W 015°43'34 3.9
2017-Sep-25 19:14N 28°28' W 016°13'1 2.3
2017-Sep-25 18:56N 28°28' W 016°12'1 2.0
2017-Sep-25 18:27N 28°27' W 016°11'816.0
2017-Sep-25 17:56N 28°24' W 016°02'1217.5
2017-Sep-25 17:17N 28°21' W 015°50'517.4
2017-Sep-25 17:01N 28°19' W 015°45'917.0
2017-Sep-25 16:31N 28°17' W 015°36'917.0
2017-Sep-25 16:00N 28°14' W 015°27'713.5
2017-Sep-25 15:30N 28°07' W 015°23'2 2.5
2017-Sep-25 14:50N 28°08' W 015°25'0 0.0
2017-Sep-25 14:20N 28°08' W 015°25'0 0.0
2017-Sep-25 13:50N 28°08' W 015°25'0 0.0
2017-Sep-25 13:23N 28°08' W 015°25'0 0.0
2017-Sep-25 12:53N 28°08' W 015°25'0 0.0
2017-Sep-25 12:23N 28°08' W 015°25'0 0.0
2017-Sep-25 11:53N 28°08' W 015°25'0 0.0
2017-Sep-25 11:23N 28°08' W 015°25'0 0.0
2017-Sep-25 10:56N 28°08' W 015°25'0 0.0
2017-Sep-25 10:26N 28°08' W 015°25'0 0.0
2017-Sep-25 09:56N 28°08' W 015°25'0 0.0
2017-Sep-25 09:26N 28°08' W 015°25'0 0.0
2017-Sep-25 08:56N 28°08' W 015°25'0 0.0
2017-Sep-25 08:26N 28°08' W 015°25'0 0.0
2017-Sep-25 07:59N 28°08' W 015°25'0 0.0
2017-Sep-25 07:29N 28°08' W 015°25'1 2.0
2017-Sep-25 07:00N 28°07' W 015°24'510.2
2017-Sep-25 06:30N 28°10' W 015°20'917.5
2017-Sep-25 06:01N 28°17' W 015°13'917.4
2017-Sep-25 05:30N 28°23' W 015°06'917.4
2017-Sep-25 05:01N 28°29' W 014°59'917.7
2017-Sep-25 04:31N 28°35' W 014°52'  
2017-Sep-20 21:50N 35°59' W 005°15'617.0
2017-Sep-20 21:30N 35°59' W 005°22'59916.3
2017-Sep-19 08:47N 29°41' W 014°35'1515.6
2017-Sep-19 07:48N 29°31' W 014°48'515.3
2017-Sep-19 07:29N 29°28' W 014°52'3515.3
2017-Sep-19 05:10N 29°04' W 015°23'315.4
2017-Sep-19 04:59N 29°03' W 015°25'1715.4
2017-Sep-19 03:52N 28°51' W 015°40'815.6
2017-Sep-19 03:20N 28°46' W 015°47'1816.0
2017-Sep-19 02:13N 28°34' W 016°03'516.6
2017-Sep-19 01:56N 28°31' W 016°06'6 7.9
2017-Sep-19 01:10N 28°29' W 016°13'0 0.0
2017-Sep-19 00:51N 28°29' W 016°13'0 0.0
2017-Sep-19 00:10N 28°29' W 016°13'0 0.0
2017-Sep-18 23:54N 28°29' W 016°13'1 0.2
2017-Sep-18 18:56N 28°28' W 016°13'614.5
2017-Sep-18 18:30N 28°25' W 016°07'1017.8
2017-Sep-18 17:57N 28°22' W 015°56'917.7
2017-Sep-18 17:28N 28°20' W 015°47'817.8
2017-Sep-18 17:01N 28°17' W 015°38'917.7
2017-Sep-18 16:31N 28°14' W 015°29'714.0
2017-Sep-18 16:01N 28°09' W 015°23'3 5.0
2017-Sep-18 15:30N 28°08' W 015°25'0 0.0
2017-Sep-18 14:59N 28°08' W 015°25'0 0.0
2017-Sep-18 14:29N 28°08' W 015°25'0 0.1
2017-Sep-18 13:59N 28°08' W 015°25'0 0.1
2017-Sep-18 13:29N 28°08' W 015°25'0 0.0
2017-Sep-18 12:59N 28°08' W 015°25'0 0.0
2017-Sep-18 12:29N 28°08' W 015°25'0 0.0
2017-Sep-18 11:50N 28°08' W 015°25'0 0.0
2017-Sep-18 11:20N 28°08' W 015°25'0 0.0
2017-Sep-18 10:50N 28°08' W 015°25'0 0.0
2017-Sep-18 10:23N 28°08' W 015°25'0 0.0
2017-Sep-18 09:53N 28°08' W 015°25'0 0.0
2017-Sep-18 09:23N 28°08' W 015°25'0 0.0
2017-Sep-18 08:53N 28°08' W 015°25'0 0.0
2017-Sep-18 08:23N 28°08' W 015°25'0 0.1
2017-Sep-18 08:00N 28°08' W 015°25'2 4.4
2017-Sep-18 07:30N 28°08' W 015°23'715.0
2017-Sep-18 07:01N 28°13' W 015°17'917.9
2017-Sep-18 06:30N 28°20' W 015°10'917.9
2017-Sep-18 06:00N 28°26' W 015°03'  
Track history (hours):
 
Tides and Currents Weather Stations Pressure Air Temp Water Temp Dewpoint Dewpoint Depression Visibility Wind Speed Wind Dir Waves Ship Positions

Johanna Schepers

Last reported at 2017-Sep-26 05:55 UTC. Time now 2017-Sep-26 18:39 UTC.
Position N 29°09' W 015°15'.

Length 141 m; draft 6.1 m.

Type: Cargo ship. MMSI: 255805755.

Date/timePositionNaut miles runAvg speedWind from/ knotsBaromVisibWave heightAir tempDewpointWater temp
2017-Sep-26 05:55N 29°09' W 015°15'716.1
2017-Sep-26 05:28N 29°05' W 015°22'716.3
2017-Sep-26 05:00N 28°60' W 015°28'816.5
2017-Sep-26 04:30N 28°55' W 015°36'816.6
2017-Sep-26 04:00N 28°50' W 015°43'34 3.9
2017-Sep-25 19:14N 28°28' W 016°13'1 2.3
2017-Sep-25 18:56N 28°28' W 016°12'1 2.0
2017-Sep-25 18:27N 28°27' W 016°11'816.0
2017-Sep-25 17:56N 28°24' W 016°02'1217.5
2017-Sep-25 17:17N 28°21' W 015°50'517.4
2017-Sep-25 17:01N 28°19' W 015°45'917.0
2017-Sep-25 16:31N 28°17' W 015°36'917.0
2017-Sep-25 16:00N 28°14' W 015°27'713.5
2017-Sep-25 15:30N 28°07' W 015°23'2 2.5
2017-Sep-25 14:50N 28°08' W 015°25'0 0.0
2017-Sep-25 14:20N 28°08' W 015°25'0 0.0
2017-Sep-25 13:50N 28°08' W 015°25'0 0.0
2017-Sep-25 13:23N 28°08' W 015°25'0 0.0
2017-Sep-25 12:53N 28°08' W 015°25'0 0.0
2017-Sep-25 12:23N 28°08' W 015°25'0 0.0
2017-Sep-25 11:53N 28°08' W 015°25'0 0.0
2017-Sep-25 11:23N 28°08' W 015°25'0 0.0
2017-Sep-25 10:56N 28°08' W 015°25'0 0.0
2017-Sep-25 10:26N 28°08' W 015°25'0 0.0
2017-Sep-25 09:56N 28°08' W 015°25'0 0.0
2017-Sep-25 09:26N 28°08' W 015°25'0 0.0
2017-Sep-25 08:56N 28°08' W 015°25'0 0.0
2017-Sep-25 08:26N 28°08' W 015°25'0 0.0
2017-Sep-25 07:59N 28°08' W 015°25'0 0.0
2017-Sep-25 07:29N 28°08' W 015°25'1 2.0
2017-Sep-25 07:00N 28°07' W 015°24'510.2
2017-Sep-25 06:30N 28°10' W 015°20'917.5
2017-Sep-25 06:01N 28°17' W 015°13'917.4
2017-Sep-25 05:30N 28°23' W 015°06'917.4
2017-Sep-25 05:01N 28°29' W 014°59'917.7
2017-Sep-25 04:31N 28°35' W 014°52'  
2017-Sep-20 21:50N 35°59' W 005°15'617.0
2017-Sep-20 21:30N 35°59' W 005°22'59916.3
2017-Sep-19 08:47N 29°41' W 014°35'1515.6
2017-Sep-19 07:48N 29°31' W 014°48'515.3
2017-Sep-19 07:29N 29°28' W 014°52'3515.3
2017-Sep-19 05:10N 29°04' W 015°23'315.4
2017-Sep-19 04:59N 29°03' W 015°25'1715.4
2017-Sep-19 03:52N 28°51' W 015°40'815.6
2017-Sep-19 03:20N 28°46' W 015°47'1816.0
2017-Sep-19 02:13N 28°34' W 016°03'516.6
2017-Sep-19 01:56N 28°31' W 016°06'6 7.9
2017-Sep-19 01:10N 28°29' W 016°13'0 0.0
2017-Sep-19 00:51N 28°29' W 016°13'0 0.0
2017-Sep-19 00:10N 28°29' W 016°13'0 0.0
2017-Sep-18 23:54N 28°29' W 016°13'1 0.2
2017-Sep-18 18:56N 28°28' W 016°13'614.5
2017-Sep-18 18:30N 28°25' W 016°07'1017.8
2017-Sep-18 17:57N 28°22' W 015°56'917.7
2017-Sep-18 17:28N 28°20' W 015°47'817.8
2017-Sep-18 17:01N 28°17' W 015°38'917.7
2017-Sep-18 16:31N 28°14' W 015°29'714.0
2017-Sep-18 16:01N 28°09' W 015°23'3 5.0
2017-Sep-18 15:30N 28°08' W 015°25'0 0.0
2017-Sep-18 14:59N 28°08' W 015°25'0 0.0
2017-Sep-18 14:29N 28°08' W 015°25'0 0.1
2017-Sep-18 13:59N 28°08' W 015°25'0 0.1
2017-Sep-18 13:29N 28°08' W 015°25'0 0.0
2017-Sep-18 12:59N 28°08' W 015°25'0 0.0
2017-Sep-18 12:29N 28°08' W 015°25'0 0.0
2017-Sep-18 11:50N 28°08' W 015°25'0 0.0
2017-Sep-18 11:20N 28°08' W 015°25'0 0.0
2017-Sep-18 10:50N 28°08' W 015°25'0 0.0
2017-Sep-18 10:23N 28°08' W 015°25'0 0.0
2017-Sep-18 09:53N 28°08' W 015°25'0 0.0
2017-Sep-18 09:23N 28°08' W 015°25'0 0.0
2017-Sep-18 08:53N 28°08' W 015°25'0 0.0
2017-Sep-18 08:23N 28°08' W 015°25'0 0.1
2017-Sep-18 08:00N 28°08' W 015°25'2 4.4
2017-Sep-18 07:30N 28°08' W 015°23'715.0
2017-Sep-18 07:01N 28°13' W 015°17'917.9
2017-Sep-18 06:30N 28°20' W 015°10'917.9
2017-Sep-18 06:00N 28°26' W 015°03'  

Dump ship's entire track history